createdAt,value
2023-04-08T00:01:24.544Z,100.00
2023-04-08T00:03:52.531Z,100.00
2023-04-08T00:06:20.565Z,100.00
2023-04-08T00:08:48.656Z,100.00
2023-04-08T00:11:17.883Z,100.00
2023-04-08T00:13:45.958Z,100.00
2023-04-08T00:16:13.805Z,100.00
2023-04-08T00:18:42.707Z,100.00
2023-04-08T00:21:10.605Z,100.00
2023-04-08T00:23:38.382Z,100.00
2023-04-08T00:26:06.216Z,100.00
2023-04-08T00:28:35.503Z,100.00
2023-04-08T00:31:03.277Z,100.00
2023-04-08T00:33:31.084Z,100.00
2023-04-08T00:35:58.886Z,100.00
2023-04-08T00:38:26.670Z,100.00
2023-04-08T00:40:54.426Z,100.00
2023-04-08T00:43:22.191Z,100.00
2023-04-08T00:45:51.376Z,100.00
2023-04-08T00:48:19.165Z,100.00
2023-04-08T00:50:47.270Z,100.00
2023-04-08T00:53:18.468Z,100.00
2023-04-08T00:55:46.465Z,100.00
2023-04-08T00:58:15.358Z,100.00
2023-04-08T01:00:48.492Z,100.00
2023-04-08T01:03:19.969Z,100.00
2023-04-08T01:05:57.170Z,100.00
2023-04-08T01:08:28.030Z,100.00
2023-04-08T01:10:59.663Z,100.00
2023-04-08T01:13:32.825Z,100.00
2023-04-08T01:16:00.912Z,100.00
2023-04-08T01:18:31.698Z,100.00
2023-04-08T01:21:00.276Z,100.00
2023-04-08T01:23:38.315Z,100.00
2023-04-08T01:26:07.510Z,100.00
2023-04-08T01:28:36.431Z,100.00
2023-04-08T01:31:05.079Z,100.00
2023-04-08T01:33:33.771Z,100.00
2023-04-08T01:36:02.619Z,100.00
2023-04-08T01:38:32.860Z,100.00
2023-04-08T01:41:01.403Z,100.00
2023-04-08T01:43:32.223Z,100.00
2023-04-08T01:46:01.205Z,100.00
2023-04-08T01:48:29.676Z,100.00
2023-04-08T01:50:58.276Z,100.00
2023-04-08T01:53:26.315Z,100.00
2023-04-08T01:56:10.358Z,100.00
2023-04-08T01:58:42.993Z,100.00
2023-04-08T02:01:13.429Z,100.00
2023-04-08T02:03:44.533Z,100.00
2023-04-08T02:06:12.435Z,100.00
2023-04-08T02:08:40.267Z,100.00
2023-04-08T02:11:08.000Z,100.00
2023-04-08T02:13:35.938Z,100.00
2023-04-08T02:16:11.975Z,100.00
2023-04-08T02:18:44.620Z,100.00
2023-04-08T02:21:15.537Z,100.00
2023-04-08T02:23:47.165Z,100.00
2023-04-08T02:26:16.857Z,100.00
2023-04-08T02:28:44.996Z,100.00
2023-04-08T02:31:15.781Z,100.00
2023-04-08T02:33:44.426Z,100.00
2023-04-08T02:36:13.406Z,100.00
2023-04-08T02:38:41.306Z,100.00
2023-04-08T02:41:09.124Z,100.00
2023-04-08T02:43:36.879Z,100.00
2023-04-08T02:46:04.746Z,100.00
2023-04-08T02:48:34.298Z,100.00
2023-04-08T02:51:02.098Z,100.00
2023-04-08T02:53:30.000Z,100.00
2023-04-08T02:55:57.760Z,100.00
2023-04-08T02:58:25.493Z,100.00
2023-04-08T03:00:53.440Z,100.00
2023-04-08T03:03:27.665Z,100.00
2023-04-08T03:05:57.607Z,100.00
2023-04-08T03:08:25.821Z,100.00
2023-04-08T03:10:53.762Z,100.00
2023-04-08T03:13:21.486Z,100.00
2023-04-08T03:15:49.298Z,100.00
2023-04-08T03:18:17.805Z,100.00
2023-04-08T03:20:45.550Z,100.00
2023-04-08T03:23:14.726Z,100.00
2023-04-08T03:25:42.411Z,100.00
2023-04-08T03:28:10.166Z,100.00
2023-04-08T03:30:38.095Z,100.00
2023-04-08T03:33:08.105Z,100.00
2023-04-08T03:35:36.112Z,100.00
2023-04-08T03:38:03.976Z,100.00
2023-04-08T03:40:33.071Z,100.00
2023-04-08T03:43:01.145Z,100.00
2023-04-08T03:45:28.890Z,100.00
2023-04-08T03:47:56.635Z,100.00
2023-04-08T03:50:24.558Z,100.00
2023-04-08T03:52:52.330Z,100.00
2023-04-08T03:55:20.048Z,100.00
2023-04-08T03:57:49.211Z,100.00
2023-04-08T04:00:17.110Z,100.00
2023-04-08T04:02:44.970Z,100.00
2023-04-08T04:05:12.761Z,100.00
2023-04-08T04:07:40.554Z,100.00
2023-04-08T04:10:10.408Z,100.00
2023-04-08T04:12:38.161Z,100.00
2023-04-08T04:15:08.538Z,100.00
2023-04-08T04:17:36.287Z,100.00
2023-04-08T04:20:05.475Z,100.00
2023-04-08T04:22:33.294Z,100.00
2023-04-08T04:25:01.017Z,100.00
2023-04-08T04:27:28.782Z,100.00
2023-04-08T04:29:56.974Z,100.00
2023-04-08T04:32:26.400Z,100.00
2023-04-08T04:34:54.172Z,100.00
2023-04-08T04:37:22.011Z,100.00
2023-04-08T04:39:49.812Z,100.00
2023-04-08T04:42:17.545Z,100.00
2023-04-08T04:44:45.317Z,100.00
2023-04-08T04:47:13.037Z,100.00
2023-04-08T04:49:42.132Z,100.00
2023-04-08T04:52:09.895Z,100.00
2023-04-08T04:54:37.622Z,100.00
2023-04-08T04:57:05.601Z,100.00
2023-04-08T04:59:33.341Z,100.00
2023-04-08T05:02:01.224Z,100.00
2023-04-08T05:04:28.977Z,100.00
2023-04-08T05:07:00.392Z,100.00
2023-04-08T05:09:28.159Z,100.00
2023-04-08T05:11:55.842Z,100.00
2023-04-08T05:14:23.657Z,100.00
2023-04-08T05:16:51.472Z,100.00
2023-04-08T05:19:19.231Z,100.00
2023-04-08T05:21:47.022Z,100.00
2023-04-08T05:24:16.159Z,100.00
2023-04-08T05:26:43.904Z,100.00
2023-04-08T05:29:11.882Z,100.00
2023-04-08T05:31:39.725Z,100.00
2023-04-08T05:34:07.497Z,100.00
2023-04-08T05:36:35.316Z,100.00
2023-04-08T05:39:03.558Z,100.00
2023-04-08T05:41:32.717Z,100.00
2023-04-08T05:44:00.478Z,100.00
2023-04-08T05:46:28.253Z,100.00
2023-04-08T05:48:56.053Z,100.00
2023-04-08T05:51:23.767Z,100.00
2023-04-08T05:53:51.523Z,100.00
2023-04-08T05:56:19.240Z,100.00
2023-04-08T05:58:48.632Z,100.00
2023-04-08T06:01:16.784Z,100.00
2023-04-08T06:03:44.744Z,100.00
2023-04-08T06:06:13.092Z,100.00
2023-04-08T06:08:41.083Z,100.00
2023-04-08T06:11:08.846Z,100.00
2023-04-08T06:13:37.313Z,100.00
2023-04-08T06:16:13.483Z,100.00
2023-04-08T06:18:41.519Z,100.00
2023-04-08T06:21:09.484Z,100.00
2023-04-08T06:23:37.416Z,100.00
2023-04-08T06:26:05.837Z,100.00
2023-04-08T06:28:33.704Z,100.00
2023-04-08T06:31:01.661Z,100.00
2023-04-08T06:33:30.825Z,100.00
2023-04-08T06:36:08.389Z,100.00
2023-04-08T06:38:36.582Z,100.00
2023-04-08T06:41:04.806Z,100.00
2023-04-08T06:43:32.704Z,100.00
2023-04-08T06:46:00.572Z,100.00
2023-04-08T06:48:30.587Z,100.00
2023-04-08T06:51:01.347Z,100.00
2023-04-08T06:53:31.249Z,100.00
2023-04-08T06:55:59.120Z,100.00
2023-04-08T06:58:27.327Z,100.00
2023-04-08T07:00:55.768Z,100.00
2023-04-08T07:03:24.037Z,100.00
2023-04-08T07:05:51.923Z,100.00
2023-04-08T07:08:21.278Z,100.00
2023-04-08T07:10:49.057Z,100.00
2023-04-08T07:13:17.457Z,100.00
2023-04-08T07:15:45.199Z,100.00
2023-04-08T07:18:13.541Z,100.00
2023-04-08T07:20:41.989Z,100.00
2023-04-08T07:23:10.853Z,100.00
2023-04-08T07:25:39.978Z,100.00
2023-04-08T07:28:07.742Z,100.00
2023-04-08T07:30:35.520Z,100.00
2023-04-08T07:33:03.311Z,100.00
2023-04-08T07:35:32.042Z,100.00
2023-04-08T07:38:00.151Z,100.00
2023-04-08T07:40:27.963Z,100.00
2023-04-08T07:42:57.269Z,100.00
2023-04-08T07:45:25.043Z,100.00
2023-04-08T07:47:52.800Z,100.00
2023-04-08T07:50:20.686Z,100.00
2023-04-08T07:52:48.387Z,100.00
2023-04-08T07:55:16.331Z,100.00
2023-04-08T07:57:44.166Z,100.00
2023-04-08T08:00:20.845Z,100.00
2023-04-08T08:02:49.242Z,100.00
2023-04-08T08:05:17.371Z,100.00
2023-04-08T08:07:45.280Z,100.00
2023-04-08T08:10:13.076Z,100.00
2023-04-08T08:12:40.940Z,100.00
2023-04-08T08:15:10.140Z,100.00
2023-04-08T08:17:39.271Z,100.00
2023-04-08T08:20:08.566Z,100.00
2023-04-08T08:22:41.852Z,100.00
2023-04-08T08:25:19.790Z,100.00
2023-04-08T08:27:47.725Z,100.00
2023-04-08T08:30:16.180Z,100.00
2023-04-08T08:32:45.367Z,100.00
2023-04-08T08:35:13.183Z,100.00
2023-04-08T08:37:40.949Z,100.00
2023-04-08T08:40:10.102Z,100.00
2023-04-08T08:42:38.061Z,100.00
2023-04-08T08:45:07.093Z,100.00
2023-04-08T08:47:35.020Z,100.00
2023-04-08T08:50:04.316Z,100.00
2023-04-08T08:52:32.224Z,100.00
2023-04-08T08:55:01.369Z,100.00
2023-04-08T08:57:29.126Z,100.00
2023-04-08T08:59:57.388Z,100.00
2023-04-08T09:02:27.775Z,100.00
2023-04-08T09:05:00.600Z,100.00
2023-04-08T09:07:31.146Z,100.00
2023-04-08T09:10:00.679Z,100.00
2023-04-08T09:12:29.531Z,100.00
2023-04-08T09:15:08.583Z,100.00
2023-04-08T09:17:37.804Z,100.00
2023-04-08T09:20:11.552Z,100.00
2023-04-08T09:23:06.281Z,100.00
2023-04-08T09:25:35.766Z,100.00
2023-04-08T09:28:03.613Z,100.00
2023-04-08T09:30:33.484Z,100.00
2023-04-08T09:33:01.499Z,100.00
2023-04-08T09:35:29.365Z,100.00
2023-04-08T09:37:57.205Z,100.00
2023-04-08T09:40:27.954Z,100.00
2023-04-08T09:42:58.275Z,100.00
2023-04-08T09:45:28.117Z,100.00
2023-04-08T09:47:59.210Z,100.00
2023-04-08T09:50:31.702Z,99.78
2023-04-08T09:53:04.354Z,100.00
2023-04-08T09:55:37.458Z,98.80
2023-04-08T09:58:16.666Z,99.45
2023-04-08T10:00:50.731Z,95.75
2023-04-08T10:03:29.327Z,91.73
2023-04-08T10:05:58.018Z,93.38
2023-04-08T10:08:27.082Z,93.82
2023-04-08T10:10:56.323Z,93.03
2023-04-08T10:13:28.276Z,89.77
2023-04-08T10:16:20.091Z,90.53
2023-04-08T10:18:47.834Z,88.79
2023-04-08T10:21:33.099Z,86.61
2023-04-08T10:24:06.307Z,86.55
2023-04-08T10:26:39.790Z,85.07
2023-04-08T10:29:44.021Z,82.84
2023-04-08T10:32:30.075Z,80.16
2023-04-08T10:34:57.981Z,82.13
2023-04-08T10:37:25.778Z,76.11
2023-04-08T10:39:55.531Z,78.76
2023-04-08T10:42:28.887Z,75.81
2023-04-08T10:45:01.812Z,79.84
2023-04-08T10:47:30.969Z,76.54
2023-04-08T10:49:58.717Z,70.03
2023-04-08T10:52:27.565Z,63.53
2023-04-08T10:54:55.915Z,61.34
2023-04-08T10:57:27.210Z,64.71
2023-04-08T10:59:55.076Z,61.92
2023-04-08T11:02:23.179Z,63.12
2023-04-08T11:04:55.951Z,61.03
2023-04-08T11:07:24.040Z,62.43
2023-04-08T11:09:52.064Z,57.79
2023-04-08T11:12:19.814Z,58.69
2023-04-08T11:14:49.578Z,60.51
2023-04-08T11:17:17.820Z,58.92
2023-04-08T11:19:45.749Z,56.39
2023-04-08T11:22:15.047Z,55.66
2023-04-08T11:24:43.034Z,55.20
2023-04-08T11:27:11.109Z,56.24
2023-04-08T11:29:39.651Z,54.05
2023-04-08T11:32:08.998Z,57.28
2023-04-08T11:34:40.745Z,57.62
2023-04-08T11:37:09.575Z,57.08
2023-04-08T11:39:44.065Z,54.96
2023-04-08T11:42:27.801Z,53.52
2023-04-08T11:44:55.681Z,52.83
2023-04-08T11:47:23.769Z,54.33
2023-04-08T11:49:51.687Z,53.07
2023-04-08T11:52:19.380Z,52.15
2023-04-08T11:54:49.962Z,46.23
2023-04-08T11:57:29.630Z,45.46
2023-04-08T11:59:57.344Z,49.16
2023-04-08T12:02:25.325Z,49.54
2023-04-08T12:04:53.470Z,47.84
2023-04-08T12:07:21.543Z,47.10
2023-04-08T12:09:50.996Z,46.46
2023-04-08T12:12:18.780Z,43.59
2023-04-08T12:14:46.503Z,46.01
2023-04-08T12:17:14.215Z,46.82
2023-04-08T12:19:42.232Z,47.17
2023-04-08T12:22:09.979Z,49.27
2023-04-08T12:24:37.711Z,45.37
2023-04-08T12:27:08.296Z,44.48
2023-04-08T12:29:36.050Z,43.57
2023-04-08T12:32:04.596Z,43.96
2023-04-08T12:34:32.735Z,43.00
2023-04-08T12:37:00.589Z,44.31
2023-04-08T12:39:28.385Z,44.32
2023-04-08T12:41:56.934Z,42.14
2023-04-08T12:44:26.403Z,43.32
2023-04-08T12:46:54.737Z,43.36
2023-04-08T12:49:23.462Z,43.47
2023-04-08T12:51:51.458Z,42.33
2023-04-08T12:54:19.277Z,40.41
2023-04-08T12:56:48.791Z,40.60
2023-04-08T12:59:16.918Z,38.64
2023-04-08T13:01:46.196Z,39.60
2023-04-08T13:04:14.077Z,40.23
2023-04-08T13:06:41.962Z,40.63
2023-04-08T13:09:09.753Z,40.73
2023-04-08T13:11:37.488Z,40.08
2023-04-08T13:14:05.230Z,41.38
2023-04-08T13:16:33.180Z,38.88
2023-04-08T13:19:05.159Z,36.89
2023-04-08T13:21:32.908Z,37.40
2023-04-08T13:24:03.469Z,37.09
2023-04-08T13:26:31.280Z,38.50
2023-04-08T13:28:59.061Z,37.43
2023-04-08T13:31:27.224Z,37.50
2023-04-08T13:33:57.988Z,37.36
2023-04-08T13:36:28.614Z,37.51
2023-04-08T13:38:56.730Z,38.04
2023-04-08T13:41:25.349Z,38.04
2023-04-08T13:43:53.769Z,39.09
2023-04-08T13:46:21.594Z,41.83
2023-04-08T13:48:49.658Z,42.57
2023-04-08T13:51:17.820Z,42.53
2023-04-08T13:53:51.076Z,41.25
2023-04-08T13:56:18.859Z,40.63
2023-04-08T13:58:52.313Z,38.93
2023-04-08T14:01:24.547Z,41.38
2023-04-08T14:03:52.327Z,42.00
2023-04-08T14:06:20.073Z,41.44
2023-04-08T14:08:49.552Z,40.24
2023-04-08T14:11:17.552Z,40.92
2023-04-08T14:13:47.873Z,40.95
2023-04-08T14:16:16.821Z,40.36
2023-04-08T14:18:44.708Z,40.78
2023-04-08T14:21:14.097Z,40.03
2023-04-08T14:23:41.962Z,40.50
2023-04-08T14:26:11.046Z,41.22
2023-04-08T14:28:38.821Z,43.96
2023-04-08T14:31:06.755Z,41.87
2023-04-08T14:33:34.570Z,42.58
2023-04-08T14:36:02.383Z,42.72
2023-04-08T14:38:30.104Z,43.67
2023-04-08T14:40:57.839Z,44.35
2023-04-08T14:43:26.974Z,42.70
2023-04-08T14:45:54.845Z,42.49
2023-04-08T14:48:24.959Z,41.63
2023-04-08T14:50:52.753Z,43.58
2023-04-08T14:53:20.463Z,41.00
2023-04-08T14:55:48.214Z,39.96
2023-04-08T14:58:16.604Z,39.67
2023-04-08T15:00:47.794Z,39.55
2023-04-08T15:03:19.007Z,39.04
2023-04-08T15:05:46.862Z,39.59
2023-04-08T15:08:14.603Z,39.19
2023-04-08T15:10:42.379Z,39.30
2023-04-08T15:13:11.553Z,39.63
2023-04-08T15:15:39.293Z,38.62
2023-04-08T15:18:08.537Z,36.77
2023-04-08T15:20:36.402Z,37.43
2023-04-08T15:23:04.155Z,39.23
2023-04-08T15:25:32.812Z,38.67
2023-04-08T15:28:02.604Z,39.14
2023-04-08T15:30:35.217Z,39.42
2023-04-08T15:33:04.667Z,37.67
2023-04-08T15:35:33.959Z,36.48
2023-04-08T15:38:01.858Z,34.94
2023-04-08T15:40:32.174Z,36.07
2023-04-08T15:42:59.891Z,38.66
2023-04-08T15:45:28.557Z,37.68
2023-04-08T15:47:56.621Z,37.35
2023-04-08T15:50:24.407Z,35.97
2023-04-08T15:52:53.531Z,36.23
2023-04-08T15:55:21.331Z,36.38
2023-04-08T15:57:49.319Z,33.19
2023-04-08T16:00:17.722Z,34.46
2023-04-08T16:02:46.694Z,33.51
2023-04-08T16:05:14.751Z,33.76
2023-04-08T16:07:43.133Z,33.34
2023-04-08T16:10:12.301Z,33.62
2023-04-08T16:12:40.086Z,32.82
2023-04-08T16:15:08.452Z,35.05
2023-04-08T16:17:36.352Z,36.74
2023-04-08T16:20:05.000Z,38.50
2023-04-08T16:22:32.764Z,37.63
2023-04-08T16:25:00.580Z,38.60
2023-04-08T16:27:29.728Z,39.35
2023-04-08T16:29:58.186Z,39.74
2023-04-08T16:32:26.175Z,39.18
2023-04-08T16:34:53.992Z,39.77
2023-04-08T16:37:21.809Z,40.27
2023-04-08T16:39:49.818Z,40.09
2023-04-08T16:42:18.241Z,42.00
2023-04-08T16:44:47.360Z,41.25
2023-04-08T16:47:15.465Z,41.96
2023-04-08T16:49:43.170Z,42.43
2023-04-08T16:52:11.020Z,42.86
2023-04-08T16:54:38.754Z,44.18
2023-04-08T16:57:06.545Z,43.92
2023-04-08T16:59:34.290Z,43.33
2023-04-08T17:02:03.577Z,44.62
2023-04-08T17:04:31.418Z,44.49
2023-04-08T17:06:59.227Z,45.02
2023-04-08T17:09:28.162Z,45.80
2023-04-08T17:11:57.281Z,44.45
2023-04-08T17:14:25.250Z,43.83
2023-04-08T17:16:53.099Z,45.94
2023-04-08T17:19:22.274Z,46.27
2023-04-08T17:21:50.269Z,48.62
2023-04-08T17:24:18.088Z,49.34
2023-04-08T17:26:46.202Z,49.79
2023-04-08T17:29:13.962Z,51.16
2023-04-08T17:31:41.807Z,52.76
2023-04-08T17:34:09.552Z,53.86
2023-04-08T17:36:38.702Z,53.65
2023-04-08T17:39:06.491Z,54.08
2023-04-08T17:41:40.162Z,54.07
2023-04-08T17:44:08.575Z,54.03
2023-04-08T17:46:36.796Z,56.13
2023-04-08T17:49:04.639Z,56.31
2023-04-08T17:51:33.038Z,58.22
2023-04-08T17:54:02.288Z,59.17
2023-04-08T17:56:30.026Z,60.37
2023-04-08T17:58:57.820Z,60.89
2023-04-08T18:01:25.683Z,61.60
2023-04-08T18:03:53.766Z,62.95
2023-04-08T18:06:22.016Z,63.55
2023-04-08T18:08:49.777Z,64.65
2023-04-08T18:11:19.671Z,65.24
2023-04-08T18:13:48.716Z,67.11
2023-04-08T18:16:18.266Z,68.06
2023-04-08T18:18:46.171Z,69.36
2023-04-08T18:21:15.042Z,71.33
2023-04-08T18:23:43.013Z,71.17
2023-04-08T18:26:10.883Z,70.90
2023-04-08T18:28:40.028Z,70.65
2023-04-08T18:31:08.242Z,70.19
2023-04-08T18:33:36.345Z,70.42
2023-04-08T18:36:08.388Z,70.76
2023-04-08T18:38:36.767Z,70.78
2023-04-08T18:41:04.980Z,70.87
2023-04-08T18:43:33.212Z,70.73
2023-04-08T18:46:02.411Z,71.19
2023-04-08T18:48:30.456Z,71.13
2023-04-08T18:50:58.646Z,71.68
2023-04-08T18:53:26.487Z,71.81
2023-04-08T18:55:54.859Z,72.18
2023-04-08T18:58:22.773Z,73.17
2023-04-08T19:00:53.736Z,73.15
2023-04-08T19:03:22.992Z,73.82
2023-04-08T19:05:51.488Z,74.51
2023-04-08T19:08:19.265Z,75.45
2023-04-08T19:10:47.028Z,75.22
2023-04-08T19:13:15.019Z,76.47
2023-04-08T19:15:43.130Z,76.49
2023-04-08T19:18:10.947Z,76.15
2023-04-08T19:20:40.100Z,77.77
2023-04-08T19:23:07.858Z,77.86
2023-04-08T19:25:35.611Z,77.84
2023-04-08T19:28:05.460Z,79.93
2023-04-08T19:30:37.233Z,81.02
2023-04-08T19:33:05.123Z,81.66
2023-04-08T19:35:32.998Z,82.88
2023-04-08T19:38:02.158Z,83.00
2023-04-08T19:40:29.927Z,82.23
2023-04-08T19:42:57.671Z,82.24
2023-04-08T19:45:25.421Z,82.91
2023-04-08T19:47:53.224Z,83.25
2023-04-08T19:50:22.349Z,83.92
2023-04-08T19:52:50.240Z,82.93
2023-04-08T19:55:21.664Z,82.97
2023-04-08T19:57:49.711Z,82.43
2023-04-08T20:00:17.514Z,82.97
2023-04-08T20:02:45.590Z,82.86
2023-04-08T20:05:16.214Z,83.07
2023-04-08T20:07:44.473Z,83.09
2023-04-08T20:10:13.359Z,82.81
2023-04-08T20:12:42.541Z,83.41
2023-04-08T20:15:22.979Z,82.73
2023-04-08T20:17:52.725Z,83.39
2023-04-08T20:20:20.896Z,83.66
2023-04-08T20:22:48.806Z,83.79
2023-04-08T20:25:16.821Z,83.57
2023-04-08T20:27:45.920Z,83.50
2023-04-08T20:30:14.198Z,83.82
2023-04-08T20:32:42.053Z,83.76
2023-04-08T20:35:10.949Z,84.27
2023-04-08T20:37:39.062Z,84.38
2023-04-08T20:40:08.460Z,84.25
2023-04-08T20:42:36.462Z,84.46
2023-04-08T20:45:06.276Z,84.23
2023-04-08T20:47:34.074Z,84.87
2023-04-08T20:50:01.873Z,84.84
2023-04-08T20:52:29.571Z,84.88
2023-04-08T20:54:57.326Z,85.62
2023-04-08T20:57:25.073Z,86.44
2023-04-08T20:59:52.861Z,86.30
2023-04-08T21:02:22.245Z,86.54
2023-04-08T21:04:50.109Z,86.47
2023-04-08T21:07:18.128Z,86.71
2023-04-08T21:09:48.163Z,86.94
2023-04-08T21:12:15.960Z,87.42
2023-04-08T21:14:45.248Z,87.88
2023-04-08T21:17:13.138Z,88.30
2023-04-08T21:19:42.667Z,87.97
2023-04-08T21:22:10.486Z,88.21
2023-04-08T21:24:38.245Z,87.71
2023-04-08T21:27:06.077Z,88.10
2023-04-08T21:29:33.810Z,88.54
2023-04-08T21:32:01.568Z,88.46
2023-04-08T21:38:18.017Z,88.29
2023-04-08T21:40:45.962Z,88.86
2023-04-08T21:43:13.742Z,88.29
2023-04-08T21:45:41.546Z,88.30
2023-04-08T21:48:09.359Z,89.57
2023-04-08T21:50:38.500Z,89.22
2023-04-08T21:53:06.446Z,89.29
2023-04-08T21:55:35.724Z,89.67
2023-04-08T21:58:03.493Z,90.65
2023-04-08T22:00:31.250Z,90.98
2023-04-08T22:02:59.206Z,91.50
2023-04-08T22:05:27.037Z,91.40
2023-04-08T22:07:54.949Z,91.88
2023-04-08T22:10:22.834Z,91.78
2023-04-08T22:12:52.055Z,91.75
2023-04-08T22:15:19.762Z,92.04
2023-04-08T22:17:47.538Z,91.60
2023-04-08T22:20:15.333Z,91.81
2023-04-08T22:22:43.096Z,91.99
2023-04-08T22:25:11.512Z,92.27
2023-04-08T22:27:39.524Z,92.44
2023-04-08T22:30:10.422Z,92.39
2023-04-08T22:32:38.206Z,92.52
2023-04-08T22:35:07.001Z,92.03
2023-04-08T22:37:34.772Z,91.97
2023-04-08T22:40:02.755Z,92.97
2023-04-08T22:42:30.576Z,93.23
2023-04-08T22:44:58.325Z,92.85
2023-04-08T22:47:27.488Z,93.50
2023-04-08T22:49:55.423Z,93.84
2023-04-08T22:52:23.266Z,93.50
2023-04-08T22:54:51.279Z,94.07
2023-04-08T22:57:19.098Z,94.71
2023-04-08T22:59:46.850Z,94.15
2023-04-08T23:02:14.744Z,94.99
2023-04-08T23:04:43.914Z,94.97
2023-04-08T23:07:11.645Z,95.93
2023-04-08T23:09:39.381Z,96.18
2023-04-08T23:12:07.183Z,95.95
2023-04-08T23:14:34.937Z,96.34
2023-04-08T23:17:05.039Z,96.28
2023-04-08T23:19:33.250Z,97.03
2023-04-08T23:22:02.374Z,96.48
2023-04-08T23:24:30.354Z,96.53
2023-04-08T23:26:58.051Z,96.97
2023-04-08T23:29:25.839Z,97.57
2023-04-08T23:31:53.582Z,98.56
2023-04-08T23:34:21.286Z,98.87
2023-04-08T23:36:49.090Z,100.00
2023-04-08T23:39:18.832Z,100.00
2023-04-08T23:41:46.595Z,100.00
2023-04-08T23:44:14.389Z,100.00
2023-04-08T23:46:42.205Z,100.00
2023-04-08T23:49:09.983Z,100.00
2023-04-08T23:51:38.874Z,100.00
2023-04-08T23:54:06.704Z,100.00
2023-04-08T23:56:35.837Z,100.00
2023-04-08T23:59:03.561Z,100.00
